Pagrindinis puslapis
METAR-TAF:

METAR-TAF

Oro uostai :

Aleksandrupolis, Graikija

platuma: 40-51N, ilguma: 025-55E, Aukštis: 7 m

Dabartinis oras

Ataskaita buvo paskelbta 10 minutes, ne 14:50 UTC
Vėjas 9 kt iš Vakarų/Pietvakarių
Temperatūra 31°C
Drėgmė 46%
Slėgis 1013 hPa
Matomumas 10 km arba daugiau
Mažai debesys ne aukštis 3000 ft

METAR: LGAL 131450Z 25009KT 9999 FEW030 31/18 Q1013

Laikas: 18:00 (15:00 UTC)

Prognozė

Ataskaita buvo paskelbta 1 valandą ir 0 minutes, ne 14:00 UTC
Prognozė galioja nuo 13 metu 15 UTC su 13 metu 24 UTC
Vėjas 10 kt iš Vakarų/Pietvakarių
Matomumas 10 km arba daugiau
Išsisklaidę debesys ne aukštis 2500 ft
Tikimybė 30% :
Laikinai
nuo 13 metu 15 UTC su 13 metu 18 UTC
Matomumas: 5000 m
Mažai debesys ne aukštis 1800 ft, aukštai iškilę kamuoliniai debesys.
Su prošvaistėmis ne aukštis 6000 ft
lietus
Tapsmas
nuo 13 metu 17 UTC su 13 metu 19 UTC
Vėjas 12 kt iš Šiaurės Rytų

TAF: LGAL 131400Z 1315/1324 24010KT 9999 SCT025 PROB30 TEMPO 1315/1318 5000 SHRA FEW018TCU BKN060 BECMG 1317/1319 04012KT

Orai ataskaitas ir orų prognozės (METAR, TAF).

turimą stotys yra geltonos ir raudonos taškus žemėlapyje.

Perkelti pele per norėdami pamatyti stoties vardą.

Tada spustelėkite, norėdami matyti oro stebėjimo ir prognozės.

Norėdami pakeisti žemėlapį: spustelėkite ant žalios mygtukų su juodo kryžiaus žemyn,; žalią mygtuką su brūkšneliu, jei norite nutolinti; arba žalių rodyklių gretimoms žemėlapius.


METAR-TAF: